Terminal Aerodrome Forecast
Issued by NWS Sioux Falls, SD

Home | Current Version | Previous Version | Graphics & Text | Print | Product List | Glossary On
Versions: 1 2 3 4 5 6 7 8 9 10 11 12 13 14 15 16 17 18 19 20 21 22
843
FTUS43 KFSD 180452 AAD
TAFFSD
TAF AMD
KFSD 180452Z 1805/1824 31015KT 5SM -TSRA SCT040CB BKN060
      TEMPO 1805/1806 VRB30G40KT 2SM TSRA BKN035CB
     FM180600 28012KT P6SM VCTS SCT050CB BKN080
     FM180800 18007KT P6SM SCT100
     FM181300 15007KT P6SM SCT100
     FM182000 07010KT P6SM VCTS OVC050CB=

USA.gov is the U.S. government's official web portal to all federal, state and local government web resources and services.